createdAt,value
2017-10-21T00:01:42.391Z,5.03
2017-10-21T00:06:45.575Z,5.17
2017-10-21T00:11:49.533Z,5.57
2017-10-21T00:16:52.710Z,5.90
2017-10-21T00:21:56.673Z,5.57
2017-10-21T00:26:59.872Z,5.73
2017-10-21T00:32:03.141Z,5.57
2017-10-21T00:37:07.098Z,5.10
2017-10-21T00:42:10.276Z,5.37
2017-10-21T00:47:14.231Z,4.00
2017-10-21T00:52:17.472Z,5.47
2017-10-21T00:57:20.619Z,5.77
2017-10-21T01:02:24.577Z,6.73
2017-10-21T01:07:27.915Z,6.63
2017-10-21T01:12:31.171Z,6.20
2017-10-21T01:17:34.341Z,5.80
2017-10-21T01:22:37.614Z,6.13
2017-10-21T01:27:40.770Z,4.70
2017-10-21T01:32:44.873Z,4.97
2017-10-21T01:37:48.058Z,6.23
2017-10-21T01:42:51.220Z,6.47
2017-10-21T01:47:55.143Z,5.77
2017-10-21T01:52:59.149Z,5.03
2017-10-21T01:58:02.337Z,5.00
2017-10-21T02:03:05.504Z,6.67
2017-10-21T02:08:08.695Z,6.30
2017-10-21T02:13:11.877Z,5.43
2017-10-21T02:18:15.041Z,5.13
2017-10-21T02:23:18.227Z,5.97
2017-10-21T02:28:22.164Z,5.90
2017-10-21T02:33:25.345Z,6.30
2017-10-21T02:38:28.520Z,6.60
2017-10-21T02:43:31.681Z,6.13
2017-10-21T02:48:34.852Z,6.70
2017-10-21T02:53:38.828Z,6.60
2017-10-21T02:58:42.002Z,5.67
2017-10-21T03:03:45.193Z,5.00
2017-10-21T03:08:49.122Z,4.97
2017-10-21T03:13:53.085Z,6.00
2017-10-21T03:18:56.262Z,5.67
2017-10-21T03:23:59.416Z,7.40
2017-10-21T03:29:02.602Z,5.20
2017-10-21T03:34:05.796Z,5.15
2017-10-21T03:39:08.984Z,5.40
2017-10-21T03:44:12.922Z,4.90
2017-10-21T03:49:16.086Z,4.77
2017-10-21T03:54:20.050Z,5.87
2017-10-21T03:59:23.240Z,4.73
2017-10-21T04:04:26.400Z,4.30
2017-10-21T04:09:29.587Z,4.50
2017-10-21T04:14:32.917Z,4.93
2017-10-21T04:19:36.097Z,5.30
2017-10-21T04:24:39.262Z,5.20
2017-10-21T04:29:43.218Z,4.87
2017-10-21T04:34:46.398Z,4.80
2017-10-21T04:39:49.567Z,6.20
2017-10-21T04:44:52.758Z,5.67
2017-10-21T04:49:56.089Z,6.27
2017-10-21T04:54:59.277Z,6.20
2017-10-21T05:00:02.453Z,4.80
2017-10-21T05:05:05.619Z,5.20
2017-10-21T05:10:08.810Z,6.20
2017-10-21T05:15:11.997Z,5.20
2017-10-21T05:20:15.165Z,5.30
2017-10-21T05:25:18.349Z,5.90
2017-10-21T05:30:22.296Z,5.80
2017-10-21T05:35:25.462Z,6.17
2017-10-21T05:40:28.651Z,6.37
2017-10-21T05:45:31.839Z,5.87
2017-10-21T05:50:35.019Z,6.57
2017-10-21T05:55:38.214Z,6.00
2017-10-21T06:00:42.129Z,6.27
2017-10-21T06:05:46.081Z,7.07
2017-10-21T06:10:49.267Z,6.97
2017-10-21T06:15:53.326Z,7.33
2017-10-21T06:20:56.501Z,7.30
2017-10-21T06:26:00.454Z,6.07
2017-10-21T06:31:03.707Z,5.73
2017-10-21T06:36:06.906Z,7.03
2017-10-21T06:41:10.106Z,7.17
2017-10-21T06:46:13.295Z,6.43
2017-10-21T06:51:16.471Z,7.67
2017-10-21T06:56:19.670Z,7.73
2017-10-21T07:01:22.855Z,6.50
2017-10-21T07:06:26.032Z,7.20
2017-10-21T07:11:29.202Z,6.03
2017-10-21T07:16:32.392Z,7.07
2017-10-21T07:21:36.331Z,6.97
2017-10-21T07:26:39.517Z,6.70
2017-10-21T07:31:43.479Z,8.30
2017-10-21T07:36:46.678Z,7.93
2017-10-21T07:41:49.880Z,6.80
2017-10-21T07:46:53.089Z,8.13
2017-10-21T07:51:56.307Z,8.67
2017-10-21T07:56:59.535Z,8.47
2017-10-21T08:02:02.751Z,8.30
2017-10-21T08:07:05.979Z,7.90
2017-10-21T08:12:09.185Z,7.70
2017-10-21T08:17:12.373Z,8.63
2017-10-21T08:22:15.566Z,7.93
2017-10-21T08:27:18.761Z,7.30
2017-10-21T08:32:21.954Z,8.10
2017-10-21T08:37:25.135Z,7.53
2017-10-21T08:42:29.138Z,7.70
2017-10-21T08:47:32.308Z,7.10
2017-10-21T08:52:35.490Z,7.10
2017-10-21T08:57:38.686Z,6.50
2017-10-21T09:02:41.882Z,6.80
2017-10-21T09:07:45.826Z,7.77
2017-10-21T09:12:49.022Z,9.63
2017-10-21T09:17:52.238Z,8.53
2017-10-21T09:22:55.426Z,7.17
2017-10-21T09:27:59.370Z,7.67
2017-10-21T09:33:02.539Z,7.50
2017-10-21T09:38:06.484Z,7.20
2017-10-21T09:43:09.687Z,7.90
2017-10-21T09:48:13.641Z,7.40
2017-10-21T09:53:16.842Z,6.80
2017-10-21T09:58:20.080Z,7.60
2017-10-21T10:03:23.270Z,7.03
2017-10-21T10:08:26.497Z,7.37
2017-10-21T10:13:29.691Z,7.40
2017-10-21T10:18:32.885Z,7.63
2017-10-21T10:23:36.074Z,6.80
2017-10-21T10:28:39.402Z,9.63
2017-10-21T10:33:42.606Z,7.83
2017-10-21T10:38:45.791Z,7.50
2017-10-21T10:43:48.996Z,7.60
2017-10-21T10:48:52.169Z,7.07
2017-10-21T10:53:56.161Z,8.00
2017-10-21T10:58:59.365Z,7.40
2017-10-21T11:04:02.581Z,7.00
2017-10-21T11:09:05.789Z,5.80
2017-10-21T11:14:08.974Z,7.30
2017-10-21T11:19:12.197Z,6.47
2017-10-21T11:24:15.500Z,7.50
2017-10-21T11:29:19.594Z,7.07
2017-10-21T11:34:23.545Z,7.93
2017-10-21T11:39:26.737Z,7.57
2017-10-21T11:44:29.939Z,7.30
2017-10-21T11:49:33.158Z,7.17
2017-10-21T11:54:36.363Z,7.55
2017-10-21T11:59:39.565Z,7.73
2017-10-21T12:04:42.758Z,7.57
2017-10-21T12:09:45.965Z,8.57
2017-10-21T12:14:49.160Z,7.80
2017-10-21T12:19:53.142Z,9.60
2017-10-21T12:24:56.376Z,9.40
2017-10-21T12:29:59.568Z,8.20
2017-10-21T12:35:02.760Z,8.47
2017-10-21T12:40:05.977Z,8.33
2017-10-21T12:45:09.189Z,10.03
2017-10-21T12:50:12.414Z,9.20
2017-10-21T12:55:16.400Z,8.50
2017-10-21T13:00:19.597Z,7.53
2017-10-21T13:05:22.806Z,8.20
2017-10-21T13:10:26.003Z,8.43
2017-10-21T13:15:29.214Z,7.83
2017-10-21T13:20:32.427Z,6.67
2017-10-21T13:25:35.649Z,7.00
2017-10-21T13:30:38.842Z,6.10
2017-10-21T13:35:42.194Z,7.00
2017-10-21T13:40:45.483Z,6.10
2017-10-21T13:45:48.680Z,8.70
2017-10-21T13:50:51.831Z,6.07
2017-10-21T13:55:55.810Z,7.27
2017-10-21T14:00:59.000Z,6.03
2017-10-21T14:06:02.193Z,5.90
2017-10-21T14:11:05.381Z,5.60
2017-10-21T14:16:09.345Z,4.97
2017-10-21T14:21:12.557Z,4.30
2017-10-21T14:26:15.786Z,4.43
2017-10-21T14:31:18.987Z,4.20
2017-10-21T14:36:22.177Z,4.40
2017-10-21T14:41:25.369Z,3.50
2017-10-21T14:46:28.571Z,3.35
2017-10-21T14:51:31.794Z,3.17
2017-10-21T14:56:34.970Z,2.80
2017-10-21T15:01:38.166Z,2.30
2017-10-21T15:06:41.369Z,2.17
2017-10-21T15:11:44.547Z,1.93
2017-10-21T15:16:47.751Z,2.13
2017-10-21T15:21:50.941Z,2.90
2017-10-21T15:26:54.126Z,2.83
2017-10-21T15:31:57.324Z,3.23
2017-10-21T15:37:00.515Z,3.90
2017-10-21T15:42:03.707Z,4.07
2017-10-21T15:47:07.649Z,3.93
2017-10-21T15:52:10.854Z,3.87
2017-10-21T15:57:14.810Z,4.60
2017-10-21T16:02:18.028Z,4.23
2017-10-21T16:07:21.221Z,5.10
2017-10-21T16:12:24.411Z,4.83
2017-10-21T16:17:27.580Z,4.33
2017-10-21T16:22:31.565Z,4.80
2017-10-21T16:27:34.935Z,5.13
2017-10-21T16:32:38.149Z,5.50
2017-10-21T16:37:41.390Z,5.07
2017-10-21T16:42:44.602Z,5.40
2017-10-21T16:47:47.798Z,6.47
2017-10-21T16:52:50.997Z,3.90
2017-10-21T16:57:54.198Z,4.70
2017-10-21T17:02:57.399Z,4.93
2017-10-21T17:08:00.598Z,5.53
2017-10-21T17:13:03.798Z,5.20
2017-10-21T17:18:07.000Z,5.30
2017-10-21T17:23:10.972Z,5.23
2017-10-21T17:28:14.207Z,5.00
2017-10-21T17:33:17.423Z,5.43
2017-10-21T17:38:20.619Z,6.60
2017-10-21T17:43:23.829Z,6.33
2017-10-21T17:48:27.038Z,7.00
2017-10-21T17:53:30.238Z,6.63
2017-10-21T17:58:33.426Z,5.07
2017-10-21T18:03:36.641Z,10.13
2017-10-21T18:08:39.841Z,5.57
2017-10-21T18:13:43.047Z,5.83
2017-10-21T18:18:46.242Z,3.80
2017-10-21T18:23:49.454Z,3.53
2017-10-21T18:28:52.653Z,3.30
2017-10-21T18:33:55.879Z,3.53
2017-10-21T18:38:59.073Z,4.13
2017-10-21T18:44:02.269Z,2.97
2017-10-21T18:49:05.478Z,3.70
2017-10-21T18:54:08.695Z,21.60
2017-10-21T18:59:11.907Z,4.40
2017-10-21T19:04:15.109Z,8.47
2017-10-21T19:09:18.321Z,10.60
2017-10-21T19:14:21.504Z,8.83
2017-10-21T19:19:24.707Z,5.40
2017-10-21T19:24:27.914Z,4.13
2017-10-21T19:29:31.192Z,3.63
2017-10-21T19:34:35.163Z,2.70
2017-10-21T19:39:38.391Z,3.07
2017-10-21T19:44:41.601Z,2.50
2017-10-21T19:49:44.818Z,3.23
2017-10-21T19:54:48.791Z,2.90
2017-10-21T19:59:52.007Z,3.00
2017-10-21T20:04:55.198Z,3.72
2017-10-21T20:09:58.420Z,3.07
2017-10-21T20:15:01.634Z,2.60
2017-10-21T20:20:05.708Z,2.80
2017-10-21T20:25:09.642Z,3.00
2017-10-21T20:30:12.822Z,2.60
2017-10-21T20:35:16.014Z,2.20
2017-10-21T20:40:19.233Z,2.57
2017-10-21T20:45:22.412Z,2.53
2017-10-21T20:50:25.622Z,2.03
2017-10-21T20:55:28.841Z,2.58
2017-10-21T21:00:32.026Z,3.03
2017-10-21T21:05:35.218Z,2.47
2017-10-21T21:10:38.424Z,3.67
2017-10-21T21:15:41.635Z,3.00
2017-10-21T21:20:44.879Z,2.40
2017-10-21T21:25:48.073Z,3.20
2017-10-21T21:30:51.263Z,3.70
2017-10-21T21:35:54.510Z,3.40
2017-10-21T21:40:57.693Z,2.70
2017-10-21T21:46:00.906Z,2.83
2017-10-21T21:51:04.743Z,3.10
2017-10-21T21:56:08.051Z,3.20
2017-10-21T22:01:11.250Z,3.50
2017-10-21T22:06:14.421Z,3.77
2017-10-21T22:11:17.621Z,3.93
2017-10-21T22:16:20.810Z,3.50
2017-10-21T22:21:24.024Z,2.63
2017-10-21T22:26:27.214Z,3.40
2017-10-21T22:31:30.403Z,2.83
2017-10-21T22:36:34.375Z,3.20
2017-10-21T22:41:37.577Z,4.07
2017-10-21T22:46:41.952Z,3.07
2017-10-21T22:51:45.230Z,3.10
2017-10-21T22:56:48.436Z,4.03
2017-10-21T23:01:52.697Z,3.73
2017-10-21T23:06:55.881Z,5.07
2017-10-21T23:11:59.065Z,3.50
2017-10-21T23:17:02.252Z,3.50
2017-10-21T23:22:06.194Z,3.03
2017-10-21T23:27:09.382Z,3.45
2017-10-21T23:32:12.586Z,3.20
2017-10-21T23:37:16.543Z,3.30
2017-10-21T23:42:19.763Z,5.30
2017-10-21T23:47:22.945Z,4.23
2017-10-21T23:52:26.162Z,3.63
2017-10-21T23:57:29.352Z,4.00
